HSKO2: Arkansas River, Haskell, OK

Data processed at Mon Oct 16 2017 22:13


All information presented herein is the property of the government of the United States of America and may be revised or deleted at any time without prior notice.
Dissemination of this information without the expressed written consent of the Public Affairs Office, Tulsa District U.S. Army Corps of Engineers is strictly prohibited.
These data are gathered electronically and, as presented, have not undergone any form of quality control. These data are not guaranteed to be valid or correct.
Go to home page.
Go to station list.

Upstream stations:

Downstream station:
Previous Day
Next Day
Current Day
    
SHEF ID:       HSKO2     Arkansas River near Haskell, OK
STATION TYPE:  

               PRECIP     STAGE  STAGE(2)  RIV-FLOW  BAT-LOAD
                   in        ft        ft       cfs      volt
              Ccp-Rev   Ccp-Rev   Ccp-Rev   Ccp-Rev   Ccp-Rev
(US/Central)
10/16 00:00      0.00      5.84      5.70      7571     12.57
10/16 01:00      0.00      5.81      5.66      7451     12.57
10/16 02:00      0.00      5.78      5.65      7331     12.57
10/16 03:00      0.00      5.76      5.60      7252     12.49
10/16 04:00      0.00      5.73      5.58      7134     12.49
10/16 05:00      0.00      5.71      5.57      7055     12.49
10/16 06:00      0.00      5.69      5.59      6978     12.41
10/16 07:00      0.00      5.67      5.55      6900     12.41
10/16 08:00      0.00      5.66      5.55      6862     12.41
10/16 09:00      0.00      5.64      5.55      6785     12.65
10/16 10:00      0.00      5.62      5.59      6709     13.60
10/16 11:00      0.00      5.62      5.57      6709      ----
10/16 12:00      0.00      5.62      5.56      6709     13.60
10/16 13:00      0.00      5.61      5.55      6671     13.60
10/16 14:00      0.00      5.61      5.53      6671     13.60
10/16 15:00      0.00      5.60      5.51      6633     13.60
10/16 16:00      0.00      5.58      5.51      6558     13.60
10/16 17:00      0.00      5.57      5.48      6521     13.60
10/16 18:00      0.00      5.57      5.49      6521     13.44
10/16 19:00      0.00      5.58      5.50      6558     13.21
10/16 20:00      0.00      5.57      5.52      6521     12.89
10/16 21:00      0.00      5.58      5.45      ----     12.65
10/16 22:00      ----      ----      ----      ----      ----
10/16 23:00      ----      ----      ----      ----      ----